Time;durP1;ratioP1;P1;durP2;ratioP2;P2;SDS_P1;SDS_P2;PMS_P1;PMS_P2;Temp;Humidity;BMP_temperature;BMP_pressure;BME280_temperature;BME280_humidity;BME280_pressure;Samples;Min_cycle;Max_cycle;Signal;HPM_P1;HPM_P2
2020/12/05 00:02:19;;;;;;;21.83;16.00;;;2.30;65.00;;;;;;5002098;28;20548;-76
2020/12/05 00:04:46;;;;;;;22.33;16.97;;;2.40;65.20;;;;;;4995974;28;20545;-77
2020/12/05 00:07:13;;;;;;;19.77;15.90;;;2.40;65.10;;;;;;5005257;28;20532;-78
2020/12/05 00:09:40;;;;;;;24.33;17.70;;;2.40;65.10;;;;;;5007549;28;20595;-77
2020/12/05 00:12:08;;;;;;;20.80;16.80;;;2.40;65.10;;;;;;5004227;28;20667;-77
2020/12/05 00:14:34;;;;;;;19.87;16.10;;;2.40;65.10;;;;;;5008793;28;20554;-76
2020/12/05 00:17:01;;;;;;;19.90;16.30;;;2.40;65.10;;;;;;5019449;28;20509;-76
2020/12/05 00:19:27;;;;;;;19.83;15.53;;;2.40;65.10;;;;;;5007976;28;20462;-76
2020/12/05 00:21:56;;;;;;;21.30;15.73;;;2.40;65.00;;;;;;5008848;28;20450;-77
2020/12/05 00:24:22;;;;;;;18.93;14.63;;;2.50;65.20;;;;;;5005760;28;21329;-77
2020/12/05 00:26:49;;;;;;;19.90;15.23;;;2.50;65.10;;;;;;5010869;28;20949;-79
2020/12/05 00:29:16;;;;;;;17.17;14.47;;;2.50;65.40;;;;;;5004671;28;20557;-80
2020/12/05 00:31:42;;;;;;;20.20;14.97;;;2.40;65.00;;;;;;5008435;28;20469;-77
2020/12/05 00:34:09;;;;;;;22.70;16.80;;;2.40;65.10;;;;;;5011108;28;20529;-76
2020/12/05 00:36:36;;;;;;;20.30;16.20;;;2.50;65.30;;;;;;5015772;28;20832;-77
2020/12/05 00:39:04;;;;;;;23.37;16.47;;;2.50;65.20;;;;;;5010464;28;20459;-78
2020/12/05 00:41:30;;;;;;;23.10;16.23;;;2.50;65.50;;;;;;5007482;28;20492;-76
2020/12/05 00:43:57;;;;;;;21.23;16.30;;;2.50;65.50;;;;;;5007143;28;21036;-78
2020/12/05 00:46:23;;;;;;;24.63;16.67;;;2.50;65.70;;;;;;5001101;28;20540;-77
2020/12/05 00:48:50;;;;;;;22.20;16.17;;;2.50;65.60;;;;;;5003987;28;20524;-79
2020/12/05 00:51:16;;;;;;;21.20;16.07;;;2.40;65.60;;;;;;5006834;28;20736;-76
2020/12/05 00:53:43;;;;;;;21.00;16.43;;;2.40;65.90;;;;;;5003932;28;20777;-77
2020/12/05 00:56:10;;;;;;;18.73;15.40;;;2.40;65.80;;;;;;5005871;28;20548;-76
2020/12/05 00:58:38;;;;;;;18.60;15.57;;;2.30;65.90;;;;;;5007563;28;20462;-77
2020/12/05 01:01:05;;;;;;;20.10;15.57;;;2.20;66.20;;;;;;5005052;28;20614;-76
2020/12/05 01:03:32;;;;;;;19.00;15.63;;;2.10;66.20;;;;;;5009062;28;20552;-79
2020/12/05 01:05:58;;;;;;;23.53;16.70;;;2.00;66.80;;;;;;5004476;28;20453;-76
2020/12/05 01:08:25;;;;;;;21.63;15.70;;;1.90;66.70;;;;;;5005373;28;20550;-78
2020/12/05 01:10:51;;;;;;;23.03;16.97;;;1.80;66.60;;;;;;5007496;28;20501;-76
2020/12/05 01:13:19;;;;;;;25.50;16.83;;;1.80;66.80;;;;;;5005586;28;20483;-76
2020/12/05 01:15:45;;;;;;;23.20;16.40;;;1.70;66.80;;;;;;5005794;28;20484;-78
2020/12/05 01:18:11;;;;;;;20.57;17.10;;;1.60;67.00;;;;;;5005154;28;20539;-76
2020/12/05 01:20:38;;;;;;;20.20;16.80;;;1.50;67.20;;;;;;5006030;28;20481;-76
2020/12/05 01:23:04;;;;;;;20.20;15.37;;;1.40;67.30;;;;;;5004565;28;20525;-76
2020/12/05 01:25:30;;;;;;;21.70;17.10;;;1.50;67.40;;;;;;5005087;28;20915;-77
2020/12/05 01:27:57;;;;;;;20.97;15.90;;;1.40;67.60;;;;;;5005739;28;20469;-76
2020/12/05 01:30:24;;;;;;;22.50;16.43;;;1.30;67.90;;;;;;5001884;28;20572;-77
2020/12/05 01:32:50;;;;;;;22.70;17.07;;;1.30;67.90;;;;;;5005166;28;20551;-77
2020/12/05 01:35:17;;;;;;;20.13;15.33;;;1.20;68.20;;;;;;5004854;28;20552;-76
2020/12/05 01:37:43;;;;;;;22.90;16.70;;;1.20;68.30;;;;;;5006444;28;20485;-77
2020/12/05 01:40:09;;;;;;;24.50;17.00;;;1.20;68.40;;;;;;5008650;28;20583;-76
2020/12/05 01:42:36;;;;;;;22.70;15.53;;;1.20;68.50;;;;;;5004659;28;20450;-77
2020/12/05 01:45:02;;;;;;;26.30;17.43;;;1.20;68.50;;;;;;5005547;28;20519;-79
2020/12/05 01:47:30;;;;;;;22.00;16.30;;;1.10;68.80;;;;;;5003391;28;20491;-78
2020/12/05 01:49:58;;;;;;;25.13;18.27;;;1.10;68.90;;;;;;5007594;28;20473;-78
2020/12/05 01:52:24;;;;;;;23.33;18.00;;;1.10;69.20;;;;;;5006390;28;20527;-79
2020/12/05 01:54:51;;;;;;;25.27;18.10;;;1.00;69.50;;;;;;5006378;28;20459;-78
2020/12/05 01:57:20;;;;;;;23.53;17.00;;;1.00;69.60;;;;;;5006368;28;20442;-76
2020/12/05 01:59:47;;;;;;;27.10;17.43;;;1.00;69.90;;;;;;5006985;28;20449;-77
2020/12/05 02:02:14;;;;;;;25.47;17.40;;;1.00;70.00;;;;;;5005006;28;20793;-77
2020/12/05 02:04:56;;;;;;;23.90;17.57;;;0.90;70.40;;;;;;5004991;28;20480;-77
2020/12/05 02:07:30;;;;;;;22.93;17.30;;;0.90;70.60;;;;;;5006668;28;20459;-78
2020/12/05 02:09:58;;;;;;;23.20;17.87;;;0.70;70.60;;;;;;5010327;28;20481;-78
2020/12/05 02:12:32;;;;;;;23.87;17.40;;;0.60;71.20;;;;;;5009721;28;21078;-76
2020/12/05 02:15:05;;;;;;;27.40;19.53;;;0.50;71.70;;;;;;5005654;28;20498;-77
2020/12/05 02:17:36;;;;;;;25.03;18.60;;;0.50;72.20;;;;;;5003717;28;20838;-76
2020/12/05 02:20:05;;;;;;;24.37;18.07;;;0.50;72.30;;;;;;5007915;28;20480;-77
2020/12/05 02:22:38;;;;;;;24.73;18.07;;;0.30;72.80;;;;;;5006598;28;20475;-77
2020/12/05 02:25:05;;;;;;;29.07;20.20;;;0.20;73.60;;;;;;5003519;28;20454;-76
2020/12/05 02:27:33;;;;;;;27.13;18.00;;;0.20;73.90;;;;;;5008507;28;20487;-75
2020/12/05 02:30:00;;;;;;;26.63;18.47;;;0.20;74.20;;;;;;5005631;28;21015;-76
2020/12/05 02:32:26;;;;;;;29.57;19.37;;;0.20;74.70;;;;;;5007215;28;20478;-76
2020/12/05 02:34:53;;;;;;;29.03;19.60;;;0.20;75.00;;;;;;5006309;28;20922;-76
2020/12/05 02:37:24;;;;;;;26.30;19.03;;;0.20;75.50;;;;;;5005404;28;20463;-76
2020/12/05 02:39:51;;;;;;;28.13;19.97;;;0.20;75.50;;;;;;5005010;28;20444;-76
2020/12/05 02:42:19;;;;;;;29.20;20.70;;;0.20;76.00;;;;;;5006137;28;21039;-76
2020/12/05 02:44:46;;;;;;;31.73;21.17;;;0.20;76.00;;;;;;5005176;28;20559;-78
2020/12/05 02:47:13;;;;;;;28.03;19.83;;;0.20;76.30;;;;;;5008715;28;20457;-76
2020/12/05 02:49:39;;;;;;;27.10;18.30;;;0.20;76.50;;;;;;5002939;28;21018;-76
2020/12/05 02:52:06;;;;;;;27.50;19.33;;;0.20;76.50;;;;;;5008414;28;21023;-76
2020/12/05 02:54:32;;;;;;;29.77;19.80;;;0.20;76.60;;;;;;5007845;28;20488;-78
2020/12/05 02:56:59;;;;;;;30.80;20.10;;;0.20;77.10;;;;;;5003404;28;20500;-78
2020/12/05 02:59:27;;;;;;;28.60;20.10;;;0.10;77.30;;;;;;5003503;28;20460;-76
2020/12/05 03:01:53;;;;;;;27.40;19.47;;;0.20;77.40;;;;;;5002567;28;20915;-77
2020/12/05 03:04:20;;;;;;;27.13;17.93;;;0.10;77.50;;;;;;5004171;28;20504;-80
2020/12/05 03:06:46;;;;;;;25.03;18.13;;;0.10;77.10;;;;;;5003639;28;20576;-76
2020/12/05 03:09:13;;;;;;;24.83;18.80;;;0.10;77.30;;;;;;5006997;28;20515;-77
2020/12/05 03:11:39;;;;;;;26.70;18.80;;;0.00;77.90;;;;;;5006147;28;20559;-78
2020/12/05 03:14:06;;;;;;;30.63;19.37;;;-0.10;78.30;;;;;;5003117;28;20497;-76
2020/12/05 03:16:33;;;;;;;27.77;19.33;;;-0.10;78.60;;;;;;5006246;28;20580;-77
2020/12/05 03:19:00;;;;;;;29.90;19.23;;;-0.10;79.30;;;;;;5007799;28;20532;-76
2020/12/05 03:21:26;;;;;;;29.87;19.73;;;-0.20;79.40;;;;;;5005601;28;20492;-75
2020/12/05 03:23:52;;;;;;;26.70;19.40;;;-0.30;79.70;;;;;;5005864;28;20455;-75
2020/12/05 03:26:19;;;;;;;30.87;19.03;;;-0.40;80.50;;;;;;5007172;28;20446;-77
2020/12/05 03:28:45;;;;;;;26.30;19.43;;;-0.40;81.10;;;;;;5009257;28;20454;-77
2020/12/05 03:31:21;;;;;;;28.07;19.73;;;-0.50;82.10;;;;;;5006151;28;21394;-75
2020/12/05 03:33:48;;;;;;;30.90;19.40;;;-0.50;82.00;;;;;;5004363;28;20447;-76
2020/12/05 03:36:17;;;;;;;28.70;19.30;;;-0.50;82.50;;;;;;5007831;28;20480;-78
2020/12/05 03:38:46;;;;;;;29.00;19.10;;;-0.60;82.80;;;;;;5005854;28;20443;-76
2020/12/05 03:41:13;;;;;;;30.00;20.00;;;-0.70;83.30;;;;;;5008110;28;20448;-77
2020/12/05 03:43:40;;;;;;;27.50;19.70;;;-0.70;84.30;;;;;;5001365;28;20461;-76
2020/12/05 03:46:07;;;;;;;31.23;19.87;;;-0.70;85.50;;;;;;5011838;28;20488;-76
2020/12/05 03:48:33;;;;;;;28.23;20.77;;;-0.80;85.80;;;;;;5005839;28;20549;-77
2020/12/05 03:51:01;;;;;;;30.90;20.37;;;-0.70;85.70;;;;;;5004743;28;20472;-77
2020/12/05 03:53:27;;;;;;;34.27;22.37;;;-0.90;85.80;;;;;;5008837;28;20465;-76
2020/12/05 03:55:54;;;;;;;25.53;19.83;;;-0.80;87.30;;;;;;5006818;28;20468;-77
2020/12/05 03:58:21;;;;;;;28.20;19.40;;;-0.80;87.80;;;;;;5006308;28;20459;-77
2020/12/05 04:00:48;;;;;;;31.77;21.17;;;-0.80;88.40;;;;;;5005911;28;20452;-79
2020/12/05 04:03:14;;;;;;;32.83;23.40;;;-0.80;87.80;;;;;;5004456;28;20476;-76
2020/12/05 04:05:41;;;;;;;33.87;21.70;;;-0.70;87.70;;;;;;5002965;28;20496;-76
2020/12/05 04:08:08;;;;;;;30.40;21.30;;;-0.70;86.80;;;;;;5003129;28;20468;-78
2020/12/05 04:10:35;;;;;;;31.63;21.00;;;-0.60;86.50;;;;;;5007850;28;20491;-76
2020/12/05 04:13:01;;;;;;;29.30;21.17;;;-0.60;85.80;;;;;;5002358;28;20476;-76
2020/12/05 04:15:28;;;;;;;33.60;22.87;;;-0.60;85.80;;;;;;5003151;28;21011;-75
2020/12/05 04:17:55;;;;;;;33.03;21.73;;;-0.60;85.30;;;;;;5007664;28;20444;-77
2020/12/05 04:20:21;;;;;;;32.20;21.60;;;-0.70;86.00;;;;;;5001988;28;20496;-80
2020/12/05 04:22:48;;;;;;;27.53;20.20;;;-0.60;86.50;;;;;;5007699;28;20548;-78
2020/12/05 04:25:15;;;;;;;28.13;20.10;;;-0.40;86.00;;;;;;4999870;28;20448;-77
2020/12/05 04:27:41;;;;;;;35.27;20.97;;;-0.40;84.80;;;;;;5002677;28;20545;-78
2020/12/05 04:30:08;;;;;;;28.17;20.60;;;-0.40;84.70;;;;;;5001489;28;21336;-76
2020/12/05 04:32:34;;;;;;;32.17;20.90;;;-0.30;84.40;;;;;;5005794;28;20471;-76
2020/12/05 04:35:00;;;;;;;32.30;21.40;;;-0.20;83.70;;;;;;5007716;28;21016;-75
2020/12/05 04:37:27;;;;;;;29.93;21.63;;;-0.30;83.10;;;;;;5006208;28;20462;-76
2020/12/05 04:39:53;;;;;;;35.40;20.90;;;-0.20;83.10;;;;;;5003890;28;21267;-75
2020/12/05 04:42:20;;;;;;;32.93;21.40;;;-0.10;82.80;;;;;;5008190;28;20532;-79
2020/12/05 04:44:47;;;;;;;29.90;21.07;;;0.00;82.30;;;;;;5004933;28;20524;-77
2020/12/05 04:47:16;;;;;;;30.17;20.63;;;0.00;81.90;;;;;;5007799;28;20547;-76
2020/12/05 04:49:43;;;;;;;26.63;20.30;;;0.00;82.10;;;;;;5005731;28;20476;-77
2020/12/05 04:52:22;;;;;;;30.60;21.17;;;0.00;82.50;;;;;;5005036;28;20464;-77
2020/12/05 04:54:53;;;;;;;28.73;18.93;;;0.00;81.80;;;;;;5005028;28;20516;-77
2020/12/05 04:57:26;;;;;;;30.23;20.73;;;0.00;82.70;;;;;;5006341;28;20461;-77
2020/12/05 04:59:53;;;;;;;28.37;19.77;;;-0.10;82.40;;;;;;5005854;28;20440;-76
2020/12/05 05:02:25;;;;;;;28.07;19.87;;;-0.10;83.10;;;;;;5000845;28;20449;-80
2020/12/05 05:04:52;;;;;;;32.27;20.70;;;-0.10;83.20;;;;;;5004785;28;20447;-82
2020/12/05 05:07:19;;;;;;;30.77;20.23;;;0.00;83.10;;;;;;5002921;28;20461;-75
2020/12/05 05:09:48;;;;;;;30.57;19.87;;;0.10;82.70;;;;;;5003115;28;20562;-77
2020/12/05 05:12:31;;;;;;;27.83;20.33;;;0.10;81.70;;;;;;5002656;28;20486;-76
2020/12/05 05:14:58;;;;;;;28.60;19.70;;;0.10;82.10;;;;;;5005517;28;20484;-78
2020/12/05 05:17:24;;;;;;;25.90;19.53;;;0.10;81.60;;;;;;5002485;28;20473;-75
2020/12/05 05:19:51;;;;;;;29.27;18.93;;;0.10;80.90;;;;;;5001530;28;20843;-75
2020/12/05 05:22:22;;;;;;;28.07;19.33;;;0.00;81.20;;;;;;5007249;28;20509;-77
2020/12/05 05:25:02;;;;;;;24.77;18.07;;;0.00;80.70;;;;;;5005683;28;20543;-77
2020/12/05 05:27:29;;;;;;;29.40;19.77;;;0.00;80.70;;;;;;5004745;28;20477;-77
2020/12/05 05:30:07;;;;;;;27.93;19.00;;;0.00;80.60;;;;;;4999897;28;20565;-81
2020/12/05 05:32:42;;;;;;;30.33;20.07;;;0.00;82.00;;;;;;5005575;28;20470;-76
2020/12/05 05:35:12;;;;;;;31.73;20.90;;;0.10;81.50;;;;;;5003870;28;20467;-76
2020/12/05 05:37:39;;;;;;;28.60;20.93;;;0.10;81.20;;;;;;5002651;28;20455;-80
2020/12/05 05:40:07;;;;;;;30.20;20.73;;;0.00;80.60;;;;;;5005245;28;20440;-75
2020/12/05 05:42:36;;;;;;;31.03;20.00;;;-0.10;80.50;;;;;;5008543;28;20472;-77
2020/12/05 05:45:16;;;;;;;30.33;21.37;;;-0.10;80.90;;;;;;5010046;28;20561;-76
2020/12/05 05:47:43;;;;;;;32.03;21.70;;;-0.10;81.00;;;;;;5011897;28;20449;-75
2020/12/05 05:50:24;;;;;;;29.63;20.73;;;0.00;81.20;;;;;;5011925;28;20580;-75
2020/12/05 05:52:55;;;;;;;34.50;20.30;;;0.10;81.10;;;;;;5012398;28;20536;-75
2020/12/05 05:55:22;;;;;;;32.33;20.33;;;0.10;79.70;;;;;;5011627;28;20508;-75
2020/12/05 05:57:58;;;;;;;30.73;21.60;;;0.10;79.50;;;;;;5006895;28;20555;-76
2020/12/05 06:00:27;;;;;;;28.97;21.00;;;0.10;79.80;;;;;;5011161;28;20870;-77
2020/12/05 06:03:01;;;;;;;33.63;21.47;;;0.20;79.90;;;;;;5010086;28;20457;-75
2020/12/05 06:05:29;;;;;;;32.87;21.80;;;0.10;79.30;;;;;;5012633;28;21336;-74
2020/12/05 06:07:57;;;;;;;31.70;20.97;;;0.10;78.80;;;;;;5007676;28;20458;-75
2020/12/05 06:10:24;;;;;;;29.60;20.03;;;0.10;79.10;;;;;;5011836;28;20846;-76
2020/12/05 06:12:52;;;;;;;31.57;21.80;;;0.10;78.60;;;;;;5009830;28;20935;-79
2020/12/05 06:15:19;;;;;;;35.30;22.73;;;0.20;79.40;;;;;;5008567;28;20487;-78
2020/12/05 06:17:47;;;;;;;30.30;20.83;;;0.30;80.10;;;;;;5010778;28;20489;-80
2020/12/05 06:20:14;;;;;;;26.93;20.30;;;0.30;78.60;;;;;;5012067;28;20473;-76
2020/12/05 06:22:49;;;;;;;30.43;21.70;;;0.40;78.20;;;;;;5011338;28;20535;-77
2020/12/05 06:25:16;;;;;;;27.60;19.53;;;0.30;77.70;;;;;;5005594;28;20456;-76
2020/12/05 06:27:46;;;;;;;31.40;21.20;;;0.30;78.70;;;;;;5009739;28;20452;-77
2020/12/05 06:30:14;;;;;;;32.20;21.60;;;0.40;78.10;;;;;;5010237;28;20571;-75
2020/12/05 06:32:43;;;;;;;34.00;22.03;;;0.30;77.80;;;;;;5011074;28;20534;-78
2020/12/05 06:35:29;;;;;;;30.43;20.00;;;0.40;77.50;;;;;;5005453;28;20455;-78
2020/12/05 06:37:57;;;;;;;30.67;21.10;;;0.40;77.30;;;;;;5009022;28;20443;-79
2020/12/05 06:40:25;;;;;;;32.80;20.93;;;0.40;79.00;;;;;;5008495;28;20463;-76
2020/12/05 06:42:52;;;;;;;35.10;22.87;;;0.50;77.60;;;;;;5011884;28;20558;-76
2020/12/05 06:45:41;;;;;;;31.10;21.30;;;0.50;77.80;;;;;;5005570;28;20516;-77
2020/12/05 06:48:30;;;;;;;32.43;21.00;;;0.50;77.30;;;;;;5013776;28;20537;-76
2020/12/05 06:50:57;;;;;;;32.87;22.50;;;0.50;77.10;;;;;;5008931;28;20472;-76
2020/12/05 06:53:31;;;;;;;32.67;21.87;;;0.50;77.30;;;;;;5009774;28;20904;-76
2020/12/05 06:55:58;;;;;;;32.67;21.83;;;0.50;77.80;;;;;;5003512;28;20515;-76
2020/12/05 06:58:25;;;;;;;30.90;20.10;;;0.60;78.00;;;;;;5004308;28;20883;-76
2020/12/05 07:00:53;;;;;;;33.53;22.27;;;0.60;77.20;;;;;;5007268;28;20464;-78
2020/12/05 07:03:27;;;;;;;31.90;20.53;;;0.60;77.60;;;;;;5007594;28;20508;-77
2020/12/05 07:05:54;;;;;;;33.27;22.70;;;0.70;77.30;;;;;;5008038;28;20463;-75
2020/12/05 07:08:26;;;;;;;33.63;22.40;;;0.80;76.80;;;;;;5010294;28;20461;-79
2020/12/05 07:10:55;;;;;;;30.83;20.93;;;0.80;77.30;;;;;;5008342;28;20465;-75
2020/12/05 07:13:28;;;;;;;30.27;21.47;;;0.90;76.70;;;;;;5005791;28;20455;-75
2020/12/05 07:16:14;;;;;;;29.57;21.20;;;0.90;76.30;;;;;;5003589;28;21026;-75
2020/12/05 07:18:42;;;;;;;29.00;21.13;;;1.00;76.50;;;;;;5006956;28;21152;-76
2020/12/05 07:21:08;;;;;;;29.60;20.67;;;1.10;76.30;;;;;;5005962;28;20450;-77
2020/12/05 07:23:35;;;;;;;31.20;21.17;;;1.10;75.90;;;;;;5009254;28;20477;-75
2020/12/05 07:26:03;;;;;;;31.83;21.80;;;1.20;76.60;;;;;;5008731;28;20846;-77
2020/12/05 07:28:29;;;;;;;30.37;21.40;;;1.30;76.80;;;;;;5005799;28;20549;-76
2020/12/05 07:30:56;;;;;;;31.80;22.90;;;1.30;76.00;;;;;;5006975;28;20484;-78
2020/12/05 07:33:23;;;;;;;31.60;21.73;;;1.40;76.50;;;;;;5007258;28;20459;-77
2020/12/05 07:36:02;;;;;;;36.90;24.33;;;1.30;75.10;;;;;;5007987;28;20524;-78
2020/12/05 07:38:30;;;;;;;33.13;22.10;;;1.30;75.40;;;;;;5003041;28;21708;-77
2020/12/05 07:40:57;;;;;;;34.10;23.27;;;1.50;76.00;;;;;;5005789;28;20476;-79
2020/12/05 07:43:23;;;;;;;31.37;22.90;;;1.50;75.70;;;;;;5006557;28;21048;-77
2020/12/05 07:45:52;;;;;;;30.23;20.83;;;1.60;74.80;;;;;;5005116;28;20555;-81
2020/12/05 07:48:21;;;;;;;30.80;22.20;;;1.60;74.60;;;;;;5005684;28;20536;-78
2020/12/05 07:50:48;;;;;;;29.60;21.10;;;1.70;74.90;;;;;;5007571;28;20551;-78
2020/12/05 07:53:32;;;;;;;31.80;22.13;;;1.70;74.80;;;;;;5003343;28;20548;-79
2020/12/05 07:56:13;;;;;;;31.17;21.60;;;1.80;74.20;;;;;;5006591;28;20473;-77
2020/12/05 07:58:47;;;;;;;33.83;20.27;;;1.80;74.30;;;;;;5006471;28;20454;-79
2020/12/05 08:01:39;;;;;;;28.63;20.63;;;1.80;74.80;;;;;;5006177;28;20460;-77
2020/12/05 08:04:42;;;;;;;30.63;20.13;;;1.90;74.40;;;;;;5002987;28;20997;-76
2020/12/05 08:07:35;;;;;;;32.30;22.90;;;2.00;74.40;;;;;;5007825;28;20468;-76
2020/12/05 08:10:08;;;;;;;34.23;20.73;;;2.00;74.20;;;;;;5006086;28;20540;-75
2020/12/05 08:13:13;;;;;;;30.30;20.90;;;2.00;74.30;;;;;;5005162;28;20466;-79
2020/12/05 08:15:40;;;;;;;27.67;19.70;;;2.00;74.50;;;;;;4994829;28;21171;-78
2020/12/05 08:18:07;;;;;;;34.57;22.03;;;2.00;74.40;;;;;;5004371;28;20542;-77
2020/12/05 08:20:41;;;;;;;29.73;20.80;;;2.10;74.50;;;;;;5006255;28;20454;-76
2020/12/05 08:23:08;;;;;;;30.30;21.23;;;2.10;73.50;;;;;;5006265;28;20511;-82
2020/12/05 08:25:35;;;;;;;28.27;19.47;;;2.20;74.40;;;;;;5006185;28;21064;-77
2020/12/05 08:28:03;;;;;;;31.20;21.47;;;2.30;74.00;;;;;;5007552;28;20459;-78
2020/12/05 08:30:30;;;;;;;33.90;21.33;;;2.30;74.10;;;;;;5009691;28;20568;-77
2020/12/05 08:33:01;;;;;;;33.20;21.47;;;2.40;74.20;;;;;;5003272;28;20951;-76
2020/12/05 08:35:31;;;;;;;29.20;20.17;;;2.50;74.10;;;;;;5008708;28;20447;-77
2020/12/05 08:38:01;;;;;;;33.07;23.47;;;2.50;73.70;;;;;;5008493;28;20799;-77
2020/12/05 08:40:29;;;;;;;34.33;22.60;;;2.40;73.70;;;;;;5005238;28;20557;-76
2020/12/05 08:42:56;;;;;;;28.90;22.00;;;2.50;73.70;;;;;;5010658;28;20959;-77
2020/12/05 08:45:22;;;;;;;26.67;20.33;;;2.50;73.60;;;;;;5001020;28;20456;-77
2020/12/05 08:47:51;;;;;;;31.47;22.10;;;2.50;73.50;;;;;;5008095;28;20462;-78
2020/12/05 08:50:25;;;;;;;28.10;19.70;;;2.70;74.10;;;;;;5004264;28;20525;-78
2020/12/05 08:52:54;;;;;;;30.23;21.80;;;2.80;73.70;;;;;;5006660;28;20516;-76
2020/12/05 08:55:21;;;;;;;30.97;20.73;;;2.80;73.80;;;;;;5002341;28;20604;-77
2020/12/05 08:57:59;;;;;;;29.10;20.27;;;2.90;73.30;;;;;;5005863;28;20471;-75
2020/12/05 09:00:27;;;;;;;30.47;20.33;;;2.70;72.40;;;;;;5008112;28;20540;-77
2020/12/05 09:02:54;;;;;;;26.50;19.40;;;2.60;72.50;;;;;;5008318;28;20462;-76
2020/12/05 09:05:20;;;;;;;30.47;20.77;;;2.70;73.00;;;;;;5006035;28;20456;-78
2020/12/05 09:07:55;;;;;;;27.50;20.17;;;2.80;73.00;;;;;;4999522;28;20497;-82
2020/12/05 09:10:23;;;;;;;31.83;20.77;;;3.00;73.10;;;;;;5006013;28;20476;-83
2020/12/05 09:12:50;;;;;;;30.80;22.20;;;3.00;72.30;;;;;;5010373;28;20454;-80
2020/12/05 09:15:18;;;;;;;28.37;20.40;;;3.00;72.50;;;;;;5005797;28;20498;-77
2020/12/05 09:17:44;;;;;;;29.27;21.20;;;2.90;72.50;;;;;;5007590;28;20502;-77
2020/12/05 09:20:14;;;;;;;33.30;20.90;;;3.10;73.40;;;;;;5005176;28;20526;-78
2020/12/05 09:22:47;;;;;;;29.60;20.77;;;2.90;72.20;;;;;;5003695;28;20787;-77
2020/12/05 09:25:25;;;;;;;32.20;21.60;;;3.10;72.50;;;;;;5002041;28;20453;-79
2020/12/05 09:27:52;;;;;;;29.13;20.50;;;3.20;72.40;;;;;;5007145;28;20511;-77
2020/12/05 09:30:21;;;;;;;28.93;20.50;;;3.10;72.00;;;;;;5004346;28;20480;-79
2020/12/05 09:32:48;;;;;;;27.43;20.00;;;3.00;72.30;;;;;;5005521;28;20461;-78
2020/12/05 09:35:17;;;;;;;30.47;18.90;;;2.90;72.20;;;;;;5009241;28;20480;-76
2020/12/05 09:37:44;;;;;;;29.30;20.70;;;2.90;72.60;;;;;;5006569;28;20461;-79
2020/12/05 09:40:12;;;;;;;31.27;20.93;;;3.00;72.70;;;;;;5003550;28;20522;-78
2020/12/05 09:42:39;;;;;;;32.13;22.60;;;3.10;72.60;;;;;;5005977;28;20464;-76
2020/12/05 09:45:07;;;;;;;32.37;23.10;;;3.20;72.50;;;;;;5003975;28;20498;-76
2020/12/05 09:47:34;;;;;;;34.43;21.43;;;3.30;72.80;;;;;;5001028;28;20792;-77
2020/12/05 09:50:01;;;;;;;26.47;20.30;;;3.60;71.90;;;;;;5007663;28;20478;-81
2020/12/05 09:52:28;;;;;;;32.03;19.77;;;3.30;70.90;;;;;;5008238;28;20518;-80
2020/12/05 09:54:54;;;;;;;24.00;18.17;;;3.30;71.50;;;;;;5019188;28;20466;-83
2020/12/05 09:57:21;;;;;;;28.57;20.67;;;3.40;71.90;;;;;;5025827;28;20450;-79
2020/12/05 09:59:48;;;;;;;30.50;20.70;;;3.40;71.70;;;;;;5027942;28;21033;-80
2020/12/05 10:02:14;;;;;;;29.07;20.20;;;3.40;71.90;;;;;;5009094;28;20462;-82
2020/12/05 10:04:41;;;;;;;27.80;19.37;;;3.60;71.70;;;;;;5006485;28;20462;-82
2020/12/05 10:07:08;;;;;;;28.70;20.50;;;3.60;71.60;;;;;;5009547;28;20462;-82
2020/12/05 10:09:35;;;;;;;28.07;20.57;;;3.70;71.60;;;;;;5011385;28;20477;-84
2020/12/05 10:12:02;;;;;;;33.97;19.70;;;3.70;71.70;;;;;;5006737;28;20565;-81
2020/12/05 10:14:28;;;;;;;30.20;21.43;;;3.90;72.00;;;;;;5012159;28;20544;-81
2020/12/05 10:16:55;;;;;;;24.10;18.53;;;3.80;71.20;;;;;;5011451;28;20511;-85
2020/12/05 10:19:21;;;;;;;26.80;18.87;;;3.80;72.20;;;;;;5010183;28;20500;-82
2020/12/05 10:21:49;;;;;;;30.10;20.20;;;3.60;71.70;;;;;;5008224;28;20473;-80
2020/12/05 10:24:17;;;;;;;27.13;20.23;;;3.60;71.60;;;;;;5006329;28;20452;-81
2020/12/05 10:26:47;;;;;;;27.47;19.77;;;3.60;71.60;;;;;;5014905;28;20488;-83
2020/12/05 10:29:13;;;;;;;26.93;20.03;;;3.60;71.50;;;;;;5013246;28;20534;-80
2020/12/05 10:31:44;;;;;;;27.63;20.43;;;3.70;71.60;;;;;;5016165;28;20473;-85
2020/12/05 10:34:11;;;;;;;28.47;20.07;;;3.70;71.50;;;;;;5014746;28;20453;-83
2020/12/05 10:36:37;;;;;;;24.87;19.17;;;3.70;71.40;;;;;;5016778;28;20877;-82
2020/12/05 10:39:05;;;;;;;28.13;20.20;;;3.80;71.30;;;;;;5017516;28;20924;-82
2020/12/05 10:41:31;;;;;;;25.00;20.13;;;4.00;71.30;;;;;;5017469;28;20465;-83
2020/12/05 10:43:58;;;;;;;27.47;19.67;;;4.10;71.20;;;;;;5013709;28;20478;-80
2020/12/05 10:46:24;;;;;;;27.67;19.57;;;4.10;71.00;;;;;;5010946;28;20493;-82
2020/12/05 10:48:51;;;;;;;26.70;19.80;;;3.70;71.10;;;;;;5012298;28;20449;-81
2020/12/05 10:51:18;;;;;;;25.07;18.77;;;3.50;70.90;;;;;;5013790;28;21223;-80
2020/12/05 10:53:44;;;;;;;27.07;18.13;;;3.20;71.30;;;;;;5015033;28;20599;-81
2020/12/05 10:56:12;;;;;;;29.47;19.87;;;3.60;71.90;;;;;;5010075;28;20446;-80
2020/12/05 10:58:38;;;;;;;26.50;19.33;;;3.70;71.70;;;;;;5012586;28;20484;-80
2020/12/05 11:01:05;;;;;;;29.73;21.40;;;3.90;71.70;;;;;;5014804;28;20492;-82
2020/12/05 11:03:31;;;;;;;28.20;20.60;;;4.00;71.70;;;;;;5013190;28;20693;-84
2020/12/05 11:05:57;;;;;;;26.77;18.90;;;4.00;71.30;;;;;;5012678;28;20454;-81
2020/12/05 11:08:24;;;;;;;25.97;19.53;;;4.00;71.40;;;;;;5015934;28;20463;-82
2020/12/05 11:10:50;;;;;;;29.53;21.53;;;3.90;71.50;;;;;;5011423;28;20799;-83
2020/12/05 11:13:18;;;;;;;29.73;21.10;;;4.00;71.60;;;;;;5016530;28;20811;-82
2020/12/05 11:15:44;;;;;;;30.33;20.53;;;4.00;71.40;;;;;;5016265;28;20975;-81
2020/12/05 11:18:11;;;;;;;28.03;20.43;;;3.90;71.50;;;;;;5015125;28;20488;-83
2020/12/05 11:20:37;;;;;;;26.73;18.60;;;3.90;71.50;;;;;;5014661;28;20463;-82
2020/12/05 11:23:04;;;;;;;28.30;21.03;;;3.90;71.60;;;;;;5018583;28;20454;-81
2020/12/05 11:25:30;;;;;;;26.30;19.53;;;3.80;71.70;;;;;;5016486;28;20844;-84
2020/12/05 11:27:59;;;;;;;24.93;18.87;;;3.80;71.90;;;;;;5013529;28;20466;-83
2020/12/05 11:30:26;;;;;;;25.63;19.07;;;3.90;72.00;;;;;;5011491;28;20452;-81
2020/12/05 11:32:53;;;;;;;25.20;18.53;;;4.00;71.70;;;;;;5009780;28;20514;-83
2020/12/05 11:35:19;;;;;;;27.57;19.13;;;4.00;71.80;;;;;;5012796;28;20461;-81
2020/12/05 11:37:46;;;;;;;24.97;18.27;;;4.00;71.70;;;;;;5021211;28;20465;-83
2020/12/05 11:40:12;;;;;;;26.03;18.37;;;4.10;71.70;;;;;;5015477;28;20795;-81
2020/12/05 11:42:39;;;;;;;24.20;18.83;;;4.20;71.70;;;;;;5014201;28;20462;-80
2020/12/05 11:45:06;;;;;;;23.07;16.70;;;4.20;71.70;;;;;;5010009;28;20967;-82
2020/12/05 11:47:33;;;;;;;23.57;17.37;;;4.30;71.30;;;;;;5009703;28;21163;-80
2020/12/05 11:49:59;;;;;;;25.20;18.53;;;4.30;71.20;;;;;;5020291;28;20458;-81
2020/12/05 11:52:26;;;;;;;27.27;18.40;;;4.40;71.30;;;;;;5017845;28;20566;-87
2020/12/05 11:54:52;;;;;;;22.27;17.80;;;4.50;71.10;;;;;;5020742;28;20475;-85
2020/12/05 11:57:19;;;;;;;23.00;17.30;;;4.40;71.00;;;;;;5020299;28;21150;-80
2020/12/05 11:59:46;;;;;;;21.50;16.90;;;4.50;71.10;;;;;;5021247;28;20465;-81
2020/12/05 12:02:13;;;;;;;21.27;16.73;;;4.40;71.00;;;;;;5022137;28;20482;-80
2020/12/05 12:04:41;;;;;;;25.87;18.10;;;4.40;71.10;;;;;;5016943;28;20473;-82
2020/12/05 12:07:08;;;;;;;22.50;18.27;;;4.50;71.20;;;;;;5018843;28;20458;-80
2020/12/05 12:09:35;;;;;;;22.90;16.83;;;4.30;71.10;;;;;;5021082;28;20462;-84
2020/12/05 12:12:01;;;;;;;21.80;16.67;;;4.30;71.30;;;;;;5017303;28;20474;-82
2020/12/05 12:14:28;;;;;;;22.60;18.07;;;4.00;71.40;;;;;;5016549;28;20509;-79
2020/12/05 12:16:54;;;;;;;21.50;17.63;;;4.20;71.60;;;;;;5019703;28;20463;-81
2020/12/05 12:19:21;;;;;;;22.60;18.13;;;4.10;71.50;;;;;;5021641;28;20454;-82
2020/12/05 12:21:49;;;;;;;22.90;17.47;;;3.80;71.10;;;;;;5019169;28;20570;-82
2020/12/05 12:24:15;;;;;;;24.83;19.03;;;4.10;72.00;;;;;;5021819;28;20454;-85
2020/12/05 12:26:41;;;;;;;23.47;17.90;;;4.10;71.80;;;;;;5021906;28;20455;-81
2020/12/05 12:29:08;;;;;;;24.40;18.57;;;4.20;71.70;;;;;;5021697;28;20943;-81
2020/12/05 12:31:35;;;;;;;23.70;18.00;;;4.20;71.80;;;;;;5022660;28;20497;-80
2020/12/05 12:34:02;;;;;;;22.80;18.00;;;4.20;72.10;;;;;;5019183;28;20462;-81
2020/12/05 12:36:28;;;;;;;25.33;18.17;;;4.30;71.60;;;;;;5022747;28;20541;-80
2020/12/05 12:38:55;;;;;;;23.50;18.57;;;4.40;71.50;;;;;;5015404;28;20538;-81
2020/12/05 12:41:22;;;;;;;25.13;17.30;;;4.50;71.50;;;;;;5013990;28;20545;-83
2020/12/05 12:43:50;;;;;;;23.93;18.00;;;4.30;71.10;;;;;;5017439;28;20450;-81